Hampton, VA

09:49 EDT le 22 octobre 2014 (GMT -0400)
Langley Air Force Base | Change Station
CLOSE
Current Station
Aéroport
Location: Langley AFB,
Altitude: 10 ft
Stations météo à proximité

Alt. 10 ft 37.08 °N, 76.36 °W | Updated 36 minutes ago

Couvert
Couvert
54 ° F
Paraît 54 ° F
N
12
Vent Variable Vent de Ouest

Aujourd'hui
Haut(e) -- | Bas -- ° F
--% Risque de précip.
Hier
Haut(e) -- | Bas -- ° F
Precip. -- pouce
7:19 AM 6:19 PM
Lune descendante, 2% visible
Pression 29.85 pouce
Visibilité 10.0 Miles terrestres
Nuages Couvert 1000 ft
Point de rosée 54 ° F
Humidité 100%
Précipitations 0.31 pouce
Profondeur de la couche neigeuse Non disponible.
UV 0 sur 12
Pollen 1.40 sur 12
Ozone Bon
PM2.5 Bon
Flu Activity Local Activity
SPECI KLFI 221313Z AUTO 28010KT 10SM OVC010 12/12 A2985 RMK AO2 LTG DSNT SE

More Conditions Fewer Conditions

Pression 29.85 pouce
Visibilité 10.0 Miles terrestres
Nuages Couvert 1000 ft
Point de rosée 54 ° F
Humidité 100%
Précipitations 0.31 pouce
Profondeur de la couche neigeuse Non disponible.
UV 0 sur 12
Pollen 1.40 sur 12
Ozone Bon
PM2.5 Bon
Flu Activity Local Activity
SPECI KLFI 221313Z AUTO 28010KT 10SM OVC010 12/12 A2985 RMK AO2 LTG DSNT SE

More Conditions Fewer Conditions

10-Day Weather Forecast

Almanac

Astronomie

Oct. 22, 2014 Lever Coucher
Temps réel 07:19 EDT 18:19 EDT
Crépuscule civil 06:53 EDT 18:45 EDT
Crépuscule nautique 06:22 EDT 19:16 EDT
Crépuscule astronomique 05:52 EDT 19:46 EDT
Lune 06:00 EDT 17:43 EDT
Durée de lumière visible 11h 52m
Longueur du jour
10h 59m
Tomorrow will be 2m 13s shorter.
Lune descendante, 2% of the Moon is Illuminated
Aujourd'hui
Lune descendante
Oct 23
Nouveau
Oct 30
Premier quartier
Nov 6
Pleine lune
Nov 14
Dernier quartier

Extrêmes aujourd'hui

State Highs State Lows

Community

WunderPhotos

Upload Photos

1,763,919 Photos téléchargées !

Nearby

Qualité de l'air

  Qualité de l'air Indice de la qualité de l'air Polluant
Hier Bon
OZONE
Hier Bon
PM2.5
Actuel Bon
PM2.5
Actuel Bon
OZONE
mercredi Bon
PM2.5

Épaisseur de neige

Station Depth Altitude
Pas de nouvelles chutes de neige

Activité sismique

Ville Distance Mag. Time & Date
No recent earthquake activity has been reported nearby.
Minimum magnitude displayed is 2.5.

Températures des eaux côtières

Lieu Température
Aucun rapport de station

Stations météo à proximité